createdAt,value
2018-11-14T00:01:49.598Z,4.57
2018-11-14T00:04:17.087Z,5.00
2018-11-14T00:06:44.524Z,4.27
2018-11-14T00:09:11.967Z,4.70
2018-11-14T00:11:39.882Z,4.13
2018-11-14T00:14:07.352Z,4.33
2018-11-14T00:16:36.811Z,4.70
2018-11-14T00:19:04.448Z,5.20
2018-11-14T00:21:32.006Z,4.57
2018-11-14T00:23:59.462Z,5.20
2018-11-14T00:26:26.987Z,4.77
2018-11-14T00:28:54.469Z,5.03
2018-11-14T00:31:22.025Z,5.67
2018-11-14T00:33:49.572Z,4.73
2018-11-14T00:36:17.039Z,4.93
2018-11-14T00:38:44.519Z,5.07
2018-11-14T00:41:11.992Z,5.10
2018-11-14T00:43:39.535Z,5.33
2018-11-14T00:46:07.018Z,7.17
2018-11-14T00:48:34.480Z,9.27
2018-11-14T00:51:01.913Z,9.87
2018-11-14T00:53:29.343Z,7.80
2018-11-14T00:55:56.771Z,6.27
2018-11-14T00:58:24.239Z,6.93
2018-11-14T01:00:51.656Z,7.17
2018-11-14T01:03:19.159Z,6.80
2018-11-14T01:05:46.673Z,5.90
2018-11-14T01:08:14.128Z,6.17
2018-11-14T01:10:43.740Z,6.10
2018-11-14T01:13:11.298Z,5.73
2018-11-14T01:15:38.702Z,6.23
2018-11-14T01:18:06.386Z,4.73
2018-11-14T01:20:33.556Z,6.07
2018-11-14T01:23:01.019Z,6.10
2018-11-14T01:25:28.567Z,5.20
2018-11-14T01:27:56.098Z,5.40
2018-11-14T01:30:24.176Z,5.13
2018-11-14T01:32:52.397Z,5.63
2018-11-14T01:35:20.071Z,5.63
2018-11-14T01:37:47.705Z,5.33
2018-11-14T01:40:19.003Z,5.50
2018-11-14T01:42:48.768Z,6.30
2018-11-14T01:45:16.285Z,5.07
2018-11-14T01:47:43.847Z,5.60
2018-11-14T01:50:11.434Z,5.33
2018-11-14T01:52:39.057Z,5.27
2018-11-14T01:55:08.388Z,6.87
2018-11-14T01:57:35.899Z,5.57
2018-11-14T02:00:03.599Z,5.10
2018-11-14T02:02:31.308Z,4.93
2018-11-14T02:04:58.772Z,4.87
2018-11-14T02:07:26.288Z,4.97
2018-11-14T02:09:53.751Z,4.67
2018-11-14T02:12:21.156Z,5.17
2018-11-14T02:14:48.729Z,5.60
2018-11-14T02:17:16.267Z,5.83
2018-11-14T02:19:43.693Z,5.00
2018-11-14T02:22:11.147Z,4.97
2018-11-14T02:24:38.647Z,4.50
2018-11-14T02:27:06.109Z,5.73
2018-11-14T02:29:33.543Z,5.07
2018-11-14T02:32:00.998Z,5.20
2018-11-14T02:34:28.443Z,5.37
2018-11-14T02:36:55.923Z,4.87
2018-11-14T02:39:23.356Z,5.30
2018-11-14T02:41:50.884Z,5.40
2018-11-14T02:44:18.307Z,5.30
2018-11-14T02:46:45.748Z,5.43
2018-11-14T02:49:13.171Z,5.60
2018-11-14T02:51:40.686Z,5.23
2018-11-14T02:54:08.147Z,5.50
2018-11-14T02:56:36.102Z,6.03
2018-11-14T02:59:03.985Z,6.57
2018-11-14T03:01:31.384Z,6.23
2018-11-14T03:03:58.907Z,6.90
2018-11-14T03:06:26.359Z,6.50
2018-11-14T03:08:54.055Z,7.27
2018-11-14T03:11:21.541Z,6.83
2018-11-14T03:13:48.965Z,7.90
2018-11-14T03:16:17.866Z,7.90
2018-11-14T03:18:45.908Z,9.10
2018-11-14T03:21:13.906Z,9.93
2018-11-14T03:23:41.972Z,10.40
2018-11-14T03:26:10.016Z,10.97
2018-11-14T03:28:38.048Z,12.50
2018-11-14T03:31:05.957Z,14.37
2018-11-14T03:33:33.421Z,7.57
2018-11-14T03:36:06.484Z,7.87
2018-11-14T03:38:33.987Z,10.47
2018-11-14T03:41:01.508Z,16.37
2018-11-14T03:43:29.064Z,15.97
2018-11-14T03:45:56.585Z,17.00
2018-11-14T03:48:24.111Z,16.57
2018-11-14T03:50:51.636Z,17.87
2018-11-14T03:53:19.076Z,18.13
2018-11-14T03:55:46.575Z,18.20
2018-11-14T03:58:14.097Z,18.67
2018-11-14T04:00:41.600Z,25.97
2018-11-14T04:03:09.120Z,23.30
2018-11-14T04:05:36.652Z,26.87
2018-11-14T04:08:04.133Z,19.90
2018-11-14T04:10:31.599Z,18.30
2018-11-14T04:12:59.153Z,15.47
2018-11-14T04:15:26.631Z,14.17
2018-11-14T04:17:54.083Z,18.73
2018-11-14T04:20:21.648Z,16.07
2018-11-14T04:22:49.208Z,16.20
2018-11-14T04:25:18.791Z,17.23
2018-11-14T04:27:46.991Z,17.03
2018-11-14T04:30:15.599Z,22.60
2018-11-14T04:32:44.059Z,21.23
2018-11-14T04:35:12.881Z,15.80
2018-11-14T04:37:40.405Z,15.37
2018-11-14T04:40:12.096Z,12.47
2018-11-14T04:42:39.592Z,9.43
2018-11-14T04:45:08.896Z,10.90
2018-11-14T04:47:37.412Z,10.27
2018-11-14T04:50:07.029Z,11.43
2018-11-14T04:52:34.508Z,9.43
2018-11-14T04:55:02.076Z,10.30
2018-11-14T04:57:29.566Z,10.93
2018-11-14T04:59:57.310Z,10.60
2018-11-14T05:02:24.808Z,10.33
2018-11-14T05:04:52.239Z,9.97
2018-11-14T05:07:19.701Z,9.10
2018-11-14T05:09:47.173Z,8.57
2018-11-14T05:12:14.716Z,8.93
2018-11-14T05:14:42.208Z,8.53
2018-11-14T05:17:10.536Z,9.03
2018-11-14T05:19:38.020Z,7.77
2018-11-14T05:22:05.700Z,6.87
2018-11-14T05:24:33.326Z,6.80
2018-11-14T05:27:00.775Z,7.63
2018-11-14T05:29:29.361Z,6.70
2018-11-14T05:31:57.343Z,6.30
2018-11-14T05:34:24.732Z,5.93
2018-11-14T05:36:52.224Z,7.33
2018-11-14T05:39:19.681Z,7.13
2018-11-14T05:41:47.212Z,7.70
2018-11-14T05:44:14.695Z,7.27
2018-11-14T05:46:42.101Z,6.97
2018-11-14T05:49:09.573Z,7.33
2018-11-14T05:51:36.979Z,7.60
2018-11-14T05:54:04.680Z,7.63
2018-11-14T05:56:32.095Z,7.80
2018-11-14T05:58:59.645Z,7.90
2018-11-14T06:01:27.190Z,7.77
2018-11-14T06:03:55.092Z,8.03
2018-11-14T06:06:22.983Z,8.17
2018-11-14T06:08:51.089Z,7.60
2018-11-14T06:11:19.084Z,8.43
2018-11-14T06:13:47.022Z,8.63
2018-11-14T06:16:16.437Z,7.23
2018-11-14T06:18:44.524Z,8.03
2018-11-14T06:21:14.143Z,9.37
2018-11-14T06:23:41.697Z,9.33
2018-11-14T06:26:09.570Z,8.27
2018-11-14T06:28:37.049Z,8.43
2018-11-14T06:31:04.814Z,8.30
2018-11-14T06:33:32.280Z,9.23
2018-11-14T06:35:59.703Z,8.33
2018-11-14T06:38:27.770Z,8.97
2018-11-14T06:40:55.371Z,10.60
2018-11-14T06:43:22.796Z,10.30
2018-11-14T06:45:51.142Z,10.20
2018-11-14T06:48:18.627Z,9.30
2018-11-14T06:50:46.063Z,9.50
2018-11-14T06:53:13.539Z,9.03
2018-11-14T06:55:41.041Z,9.53
2018-11-14T06:58:08.493Z,9.97
2018-11-14T07:00:36.044Z,10.30
2018-11-14T07:03:05.050Z,9.47
2018-11-14T07:05:32.921Z,8.97
2018-11-14T07:08:00.444Z,8.23
2018-11-14T07:10:29.328Z,8.40
2018-11-14T07:13:02.539Z,8.63
2018-11-14T07:15:29.985Z,8.43
2018-11-14T07:17:58.144Z,9.27
2018-11-14T07:20:31.146Z,9.80
2018-11-14T07:22:58.771Z,9.33
2018-11-14T07:25:29.248Z,10.33
2018-11-14T07:27:56.816Z,12.20
2018-11-14T07:30:26.343Z,11.80
2018-11-14T07:32:55.822Z,11.57
2018-11-14T07:35:23.592Z,11.50
2018-11-14T07:38:59.912Z,11.20
2018-11-14T07:41:30.420Z,10.23
2018-11-14T07:43:58.228Z,14.33
2018-11-14T07:46:27.275Z,10.57
2018-11-14T07:48:54.897Z,13.20
2018-11-14T07:51:22.530Z,13.50
2018-11-14T07:53:50.294Z,12.97
2018-11-14T07:56:17.814Z,28.70
2018-11-14T07:58:45.293Z,19.60
2018-11-14T08:01:12.951Z,18.13
2018-11-14T08:03:40.489Z,18.57
2018-11-14T08:06:08.000Z,17.43
2018-11-14T08:08:35.528Z,17.97
2018-11-14T08:11:03.072Z,18.40
2018-11-14T08:13:31.769Z,18.50
2018-11-14T08:15:59.949Z,19.03
2018-11-14T08:18:27.528Z,18.70
2018-11-14T08:20:55.633Z,19.37
2018-11-14T08:23:23.157Z,20.33
2018-11-14T08:25:50.692Z,19.00
2018-11-14T08:28:18.215Z,18.93
2018-11-14T08:30:46.099Z,19.93
2018-11-14T08:33:13.483Z,17.97
2018-11-14T08:35:41.041Z,16.43
2018-11-14T08:38:09.036Z,16.60
2018-11-14T08:40:36.611Z,15.43
2018-11-14T08:43:04.791Z,15.93
2018-11-14T08:45:32.297Z,18.00
2018-11-14T08:47:59.802Z,17.63
2018-11-14T08:50:27.391Z,18.20
2018-11-14T08:52:54.846Z,17.00
2018-11-14T08:55:22.346Z,18.53
2018-11-14T08:57:49.911Z,16.63
2018-11-14T09:00:21.059Z,17.73
2018-11-14T09:02:49.413Z,18.57
2018-11-14T09:05:16.995Z,21.27
2018-11-14T09:07:44.616Z,22.63
2018-11-14T09:10:15.262Z,21.20
2018-11-14T09:12:43.206Z,21.07
2018-11-14T09:15:12.962Z,20.47
2018-11-14T09:17:40.432Z,20.53
2018-11-14T09:20:10.279Z,20.20
2018-11-14T09:22:37.944Z,21.03
2018-11-14T09:25:07.811Z,21.13
2018-11-14T09:27:35.288Z,21.23
2018-11-14T09:30:02.968Z,24.23
2018-11-14T09:32:30.468Z,22.37
2018-11-14T09:34:57.940Z,22.60
2018-11-14T09:37:25.472Z,23.33
2018-11-14T09:39:52.953Z,28.67
2018-11-14T09:42:20.383Z,32.13
2018-11-14T09:44:47.895Z,26.23
2018-11-14T09:47:15.455Z,22.60
2018-11-14T09:49:43.004Z,20.73
2018-11-14T09:52:10.556Z,20.17
2018-11-14T09:54:38.096Z,17.80
2018-11-14T09:57:05.690Z,17.60
2018-11-14T09:59:33.102Z,17.37
2018-11-14T10:02:00.839Z,17.37
2018-11-14T10:04:28.341Z,16.23
2018-11-14T10:06:55.860Z,17.50
2018-11-14T10:09:23.827Z,14.07
2018-11-14T10:11:51.272Z,16.43
2018-11-14T10:14:18.821Z,14.97
2018-11-14T10:16:46.361Z,15.10
2018-11-14T10:19:13.892Z,15.53
2018-11-14T10:21:41.436Z,13.13
2018-11-14T10:24:08.954Z,14.30
2018-11-14T10:26:36.680Z,13.27
2018-11-14T10:29:04.171Z,14.93
2018-11-14T10:31:31.687Z,15.33
2018-11-14T10:33:59.324Z,13.57
2018-11-14T10:36:26.771Z,12.63
2018-11-14T10:38:54.238Z,12.13
2018-11-14T10:41:22.418Z,13.10
2018-11-14T10:43:50.332Z,13.20
2018-11-14T10:46:17.832Z,13.73
2018-11-14T10:48:45.323Z,13.20
2018-11-14T10:51:12.708Z,13.43
2018-11-14T10:53:40.145Z,13.23
2018-11-14T10:56:07.615Z,14.77
2018-11-14T10:58:35.183Z,13.07
2018-11-14T11:01:08.357Z,13.60
2018-11-14T11:03:41.493Z,13.67
2018-11-14T11:06:16.427Z,15.77
2018-11-14T11:08:49.648Z,15.90
2018-11-14T11:11:18.473Z,15.90
2018-11-14T11:14:48.671Z,17.27
2018-11-14T11:17:20.345Z,15.43
2018-11-14T11:19:47.916Z,16.47
2018-11-14T11:22:15.399Z,16.43
2018-11-14T11:24:42.813Z,18.37
2018-11-14T11:27:10.250Z,20.30
2018-11-14T11:29:37.680Z,20.17
2018-11-14T11:32:05.285Z,19.50
2018-11-14T11:34:32.668Z,21.07
2018-11-14T11:37:00.151Z,20.57
2018-11-14T11:39:27.637Z,27.23
2018-11-14T11:41:55.152Z,29.40
2018-11-14T11:44:22.717Z,31.03
2018-11-14T11:46:50.145Z,30.90
2018-11-14T11:49:17.671Z,34.13
2018-11-14T11:51:45.096Z,39.80
2018-11-14T11:54:13.660Z,40.13
2018-11-14T11:56:41.108Z,41.10
2018-11-14T11:59:08.935Z,42.87
2018-11-14T12:01:36.408Z,40.50
2018-11-14T12:04:04.411Z,38.70
2018-11-14T12:06:31.923Z,43.53
2018-11-14T12:08:59.375Z,44.53
2018-11-14T12:11:27.735Z,41.20
2018-11-14T12:13:55.261Z,44.23
2018-11-14T12:16:22.936Z,44.60
2018-11-14T12:18:50.622Z,45.50
2018-11-14T12:21:18.084Z,45.10
2018-11-14T12:23:45.591Z,44.77
2018-11-14T12:26:13.024Z,49.00
2018-11-14T12:28:40.458Z,43.80
2018-11-14T12:31:08.034Z,45.37
2018-11-14T12:33:35.331Z,37.27
2018-11-14T12:36:02.743Z,34.80
2018-11-14T12:38:30.209Z,33.87
2018-11-14T12:40:57.721Z,37.40
2018-11-14T12:43:25.193Z,36.77
2018-11-14T12:45:52.640Z,34.40
2018-11-14T12:48:20.093Z,30.90
2018-11-14T12:50:47.535Z,33.40
2018-11-14T12:53:15.000Z,35.33
2018-11-14T12:55:42.432Z,33.10
2018-11-14T12:58:09.868Z,36.20
2018-11-14T13:00:37.308Z,43.40
2018-11-14T13:03:05.060Z,43.13
2018-11-14T13:05:32.500Z,41.23
2018-11-14T13:07:59.941Z,39.43
2018-11-14T13:10:27.376Z,38.90
2018-11-14T13:12:54.813Z,38.23
2018-11-14T13:15:22.259Z,41.47
2018-11-14T13:17:49.681Z,41.20
2018-11-14T13:20:18.692Z,41.80
2018-11-14T13:22:46.155Z,42.27
2018-11-14T13:25:14.421Z,41.53
2018-11-14T13:27:43.052Z,41.27
2018-11-14T13:30:12.884Z,42.50
2018-11-14T13:32:40.355Z,45.53
2018-11-14T13:35:09.957Z,45.60
2018-11-14T13:37:37.423Z,44.27
2018-11-14T13:40:05.488Z,43.70
2018-11-14T13:42:32.982Z,41.60
2018-11-14T13:45:00.460Z,48.30
2018-11-14T13:47:27.911Z,49.73
2018-11-14T13:49:55.595Z,46.13
2018-11-14T13:52:22.838Z,46.83
2018-11-14T13:54:50.330Z,42.83
2018-11-14T13:57:17.860Z,46.77
2018-11-14T13:59:45.312Z,47.47
2018-11-14T14:02:12.768Z,47.27
2018-11-14T14:04:40.198Z,47.43
2018-11-14T14:07:07.752Z,53.43
2018-11-14T14:09:35.272Z,50.60
2018-11-14T14:12:02.673Z,51.03
2018-11-14T14:14:30.239Z,49.03
2018-11-14T14:16:57.672Z,45.50
2018-11-14T14:19:25.127Z,50.83
2018-11-14T14:21:52.596Z,43.17
2018-11-14T14:24:20.061Z,42.17
2018-11-14T14:26:47.482Z,43.47
2018-11-14T14:29:14.891Z,41.50
2018-11-14T14:31:42.382Z,44.30
2018-11-14T14:34:09.795Z,43.57
2018-11-14T14:36:37.273Z,45.57
2018-11-14T14:39:07.647Z,42.20
2018-11-14T14:41:35.066Z,40.50
2018-11-14T14:44:02.520Z,40.60
2018-11-14T14:46:29.927Z,47.93
2018-11-14T14:48:57.396Z,44.40
2018-11-14T14:51:24.807Z,46.60
2018-11-14T14:53:52.412Z,44.07
2018-11-14T14:56:19.933Z,44.77
2018-11-14T14:58:47.340Z,49.03
2018-11-14T15:01:14.779Z,47.70
2018-11-14T15:03:42.293Z,44.97
2018-11-14T15:06:09.675Z,43.97
2018-11-14T15:08:37.134Z,42.33
2018-11-14T15:11:04.671Z,45.43
2018-11-14T15:13:32.087Z,43.37
2018-11-14T15:15:59.520Z,45.00
2018-11-14T15:18:26.983Z,57.07
2018-11-14T15:20:54.455Z,51.43
2018-11-14T15:23:21.907Z,51.03
2018-11-14T15:25:49.349Z,48.13
2018-11-14T15:28:16.790Z,48.83
2018-11-14T15:30:44.237Z,61.47
2018-11-14T15:33:11.657Z,54.13
2018-11-14T15:35:39.069Z,54.70
2018-11-14T15:38:06.561Z,52.93
2018-11-14T15:40:33.991Z,55.60
2018-11-14T15:43:01.456Z,53.30
2018-11-14T15:45:29.583Z,51.23
2018-11-14T15:47:57.043Z,47.17
2018-11-14T15:50:26.906Z,46.73
2018-11-14T15:52:55.173Z,47.10
2018-11-14T15:55:22.730Z,44.53
2018-11-14T15:57:50.339Z,45.67
2018-11-14T16:00:19.770Z,44.17
2018-11-14T16:02:47.295Z,43.47
2018-11-14T16:05:15.955Z,43.80
2018-11-14T16:07:44.620Z,45.97
2018-11-14T16:10:13.416Z,45.03
2018-11-14T16:12:41.481Z,46.43
2018-11-14T16:15:10.719Z,41.57
2018-11-14T16:17:38.679Z,40.00
2018-11-14T16:20:08.029Z,38.90
2018-11-14T16:22:35.488Z,39.33
2018-11-14T16:25:03.271Z,40.57
2018-11-14T16:27:30.744Z,35.93
2018-11-14T16:29:58.216Z,36.37
2018-11-14T16:32:25.723Z,36.70
2018-11-14T16:34:53.195Z,39.90
2018-11-14T16:37:20.663Z,36.00
2018-11-14T16:39:48.189Z,37.73
2018-11-14T16:42:15.685Z,35.10
2018-11-14T16:44:43.162Z,33.90
2018-11-14T16:47:10.646Z,33.53
2018-11-14T16:49:38.071Z,35.83
2018-11-14T16:52:06.020Z,31.67
2018-11-14T16:54:33.503Z,30.20
2018-11-14T16:57:01.040Z,27.57
2018-11-14T16:59:28.509Z,23.57
2018-11-14T17:01:56.009Z,61.10
2018-11-14T17:04:23.516Z,24.97
2018-11-14T17:06:50.959Z,20.07
2018-11-14T17:09:18.457Z,22.67
2018-11-14T17:11:47.779Z,18.40
2018-11-14T17:14:15.960Z,19.10
2018-11-14T17:16:43.382Z,17.00
2018-11-14T17:19:12.163Z,16.73
2018-11-14T17:21:39.639Z,16.00
2018-11-14T17:24:07.178Z,17.20
2018-11-14T17:26:35.402Z,16.97
2018-11-14T17:29:02.872Z,18.07
2018-11-14T17:31:30.321Z,20.80
2018-11-14T17:33:57.845Z,21.73
2018-11-14T17:36:25.312Z,22.73
2018-11-14T17:38:52.941Z,20.77
2018-11-14T17:41:20.465Z,21.43
2018-11-14T17:46:31.697Z,17.80
2018-11-14T17:48:59.273Z,29.43
2018-11-14T17:51:29.685Z,45.57
2018-11-14T17:53:57.246Z,37.20
2018-11-14T17:56:24.707Z,36.73
2018-11-14T17:59:01.865Z,31.63
2018-11-14T18:01:29.971Z,23.37
2018-11-14T18:04:00.007Z,24.13
2018-11-14T18:06:27.519Z,21.63
2018-11-14T18:08:55.048Z,20.00
2018-11-14T18:11:22.488Z,20.27
2018-11-14T18:13:52.454Z,19.63
2018-11-14T18:16:21.818Z,19.50
2018-11-14T18:18:49.373Z,21.50
2018-11-14T18:21:16.899Z,22.83
2018-11-14T18:23:44.407Z,21.23
2018-11-14T18:26:11.856Z,22.97
2018-11-14T18:28:39.309Z,23.13
2018-11-14T18:31:06.745Z,22.80
2018-11-14T18:33:34.164Z,22.50
2018-11-14T18:36:01.576Z,23.27
2018-11-14T18:38:29.075Z,21.80
2018-11-14T18:40:58.039Z,23.20
2018-11-14T18:43:27.616Z,25.40
2018-11-14T18:45:55.163Z,22.17
2018-11-14T18:48:27.884Z,23.87
2018-11-14T18:50:59.139Z,24.83
2018-11-14T18:53:26.820Z,24.80
2018-11-14T18:55:56.330Z,23.53
2018-11-14T18:58:26.609Z,26.57
2018-11-14T19:00:57.879Z,25.60
2018-11-14T19:03:26.391Z,24.97
2018-11-14T19:05:54.131Z,24.07
2018-11-14T19:08:21.603Z,26.90
2018-11-14T19:10:49.054Z,25.40
2018-11-14T19:13:16.479Z,26.37
2018-11-14T19:15:43.920Z,23.80
2018-11-14T19:18:11.369Z,26.57
2018-11-14T19:20:38.832Z,25.67
2018-11-14T19:23:06.401Z,26.97
2018-11-14T19:25:35.169Z,27.67
2018-11-14T19:28:02.730Z,26.63
2018-11-14T19:30:32.526Z,27.53
2018-11-14T19:33:00.858Z,27.23
2018-11-14T19:35:28.311Z,28.97
2018-11-14T19:37:56.435Z,30.00
2018-11-14T19:40:25.955Z,27.67
2018-11-14T19:42:55.612Z,26.93
2018-11-14T19:45:24.365Z,28.03
2018-11-14T19:47:51.946Z,32.90
2018-11-14T19:50:20.350Z,36.13
2018-11-14T19:52:48.126Z,51.17
2018-11-14T19:55:17.007Z,39.10
2018-11-14T19:57:45.297Z,39.30
2018-11-14T20:00:15.088Z,32.27
2018-11-14T20:02:42.557Z,31.27
2018-11-14T20:05:11.316Z,29.57
2018-11-14T20:07:38.814Z,26.43
2018-11-14T20:10:11.395Z,27.03
2018-11-14T20:12:38.864Z,27.67
2018-11-14T20:15:07.743Z,28.00
2018-11-14T20:17:35.232Z,25.67
2018-11-14T20:20:03.408Z,28.17
2018-11-14T20:22:31.010Z,29.80
2018-11-14T20:24:58.441Z,27.97
2018-11-14T20:27:25.864Z,28.93
2018-11-14T20:29:53.342Z,29.17
2018-11-14T20:32:20.765Z,27.77
2018-11-14T20:34:48.259Z,26.67
2018-11-14T20:37:15.741Z,26.40
2018-11-14T20:39:43.131Z,26.23
2018-11-14T20:42:10.567Z,24.50
2018-11-14T20:44:37.995Z,26.50
2018-11-14T20:47:05.605Z,25.77
2018-11-14T20:49:33.033Z,25.00
2018-11-14T20:52:00.469Z,25.60
2018-11-14T20:54:27.955Z,25.30
2018-11-14T20:56:55.371Z,25.30
2018-11-14T20:59:22.880Z,26.43
2018-11-14T21:01:50.346Z,25.87
2018-11-14T21:04:17.793Z,26.27
2018-11-14T21:06:45.644Z,26.73
2018-11-14T21:09:13.559Z,26.13
2018-11-14T21:11:41.030Z,28.17
2018-11-14T21:14:08.678Z,27.03
2018-11-14T21:16:36.289Z,27.57
2018-11-14T21:19:09.333Z,27.93
2018-11-14T21:21:36.863Z,28.50
2018-11-14T21:24:09.988Z,28.47
2018-11-14T21:26:37.416Z,26.43
2018-11-14T21:29:10.072Z,26.87
2018-11-14T21:31:37.712Z,28.03
2018-11-14T21:34:06.836Z,27.23
2018-11-14T21:36:34.264Z,25.70
2018-11-14T21:39:01.741Z,24.87
2018-11-14T21:41:29.182Z,25.77
2018-11-14T21:43:56.631Z,26.70
2018-11-14T21:46:30.211Z,24.83
2018-11-14T21:48:57.636Z,27.50
2018-11-14T21:51:25.075Z,26.50
2018-11-14T21:53:52.627Z,27.83
2018-11-14T21:56:20.108Z,27.07
2018-11-14T21:58:47.535Z,25.23
2018-11-14T22:01:15.073Z,28.40
2018-11-14T22:03:42.559Z,23.97
2018-11-14T22:06:10.149Z,19.47
2018-11-14T22:08:37.644Z,18.40
2018-11-14T22:11:05.118Z,18.73
2018-11-14T22:13:32.584Z,20.73
2018-11-14T22:16:00.894Z,19.43
2018-11-14T22:18:28.977Z,19.47
2018-11-14T22:20:56.436Z,19.50
2018-11-14T22:23:23.820Z,21.30
2018-11-14T22:25:51.344Z,20.27
2018-11-14T22:28:18.767Z,21.63
2018-11-14T22:30:46.200Z,19.17
2018-11-14T22:33:14.012Z,19.50
2018-11-14T22:35:41.777Z,17.90
2018-11-14T22:38:09.468Z,18.23
2018-11-14T22:40:36.990Z,19.23
2018-11-14T22:43:04.564Z,19.57
2018-11-14T22:45:32.795Z,22.23
2018-11-14T22:48:00.395Z,24.30
2018-11-14T22:50:28.002Z,22.57
2018-11-14T22:52:55.483Z,23.03
2018-11-14T22:55:23.949Z,25.33
2018-11-14T22:57:52.011Z,24.17
2018-11-14T23:00:23.535Z,23.07
2018-11-14T23:02:52.623Z,22.27
2018-11-14T23:05:21.083Z,24.07
2018-11-14T23:07:49.786Z,23.70
2018-11-14T23:10:17.945Z,22.77
2018-11-14T23:12:45.738Z,22.27
2018-11-14T23:15:13.239Z,22.50
2018-11-14T23:17:40.739Z,21.13
2018-11-14T23:20:10.808Z,22.13
2018-11-14T23:22:38.799Z,22.43
2018-11-14T23:25:06.663Z,21.33
2018-11-14T23:27:34.164Z,21.07
2018-11-14T23:30:01.591Z,20.43
2018-11-14T23:32:29.022Z,21.70
2018-11-14T23:35:02.280Z,22.93
2018-11-14T23:37:29.719Z,21.93
2018-11-14T23:39:57.219Z,22.20
2018-11-14T23:42:24.691Z,21.53
2018-11-14T23:44:52.183Z,22.23
2018-11-14T23:47:19.660Z,23.20
2018-11-14T23:49:47.096Z,21.70
2018-11-14T23:52:14.571Z,21.00
2018-11-14T23:54:41.992Z,23.53
2018-11-14T23:57:09.420Z,21.10
2018-11-14T23:59:36.847Z,22.40
